createdAt,value
2023-03-01T00:02:12.923Z,102755.81
2023-03-01T00:04:39.360Z,102760.25
2023-03-01T00:07:05.803Z,102757.72
2023-03-01T00:09:32.213Z,102753.72
2023-03-01T00:11:58.602Z,102757.72
2023-03-01T00:14:25.094Z,102740.78
2023-03-01T00:16:51.834Z,102746.38
2023-03-01T00:19:20.009Z,102746.38
2023-03-01T00:21:47.235Z,102744.78
2023-03-01T00:24:13.654Z,102734.63
2023-03-01T00:26:40.070Z,102725.28
2023-03-01T00:29:06.538Z,102734.16
2023-03-01T00:31:35.029Z,102741.41
2023-03-01T00:34:04.881Z,102738.97
2023-03-01T00:36:34.558Z,102737.34
2023-03-01T00:39:02.802Z,102748.94
2023-03-01T00:41:29.528Z,102736.38
2023-03-01T00:43:56.423Z,102742.00
2023-03-01T00:46:25.736Z,102747.69
2023-03-01T00:48:52.331Z,102750.84
2023-03-01T00:51:24.645Z,102743.59
2023-03-01T00:53:53.324Z,102746.78
2023-03-01T00:56:20.390Z,102749.94
2023-03-01T00:58:46.895Z,102751.13
2023-03-01T01:01:19.585Z,102750.31
2023-03-01T01:03:57.499Z,102738.09
2023-03-01T01:06:23.880Z,102747.41
2023-03-01T01:08:50.851Z,102745.78
2023-03-01T01:11:18.076Z,102738.91
2023-03-01T01:13:46.912Z,102740.91
2023-03-01T01:16:14.350Z,102729.91
2023-03-01T01:18:41.477Z,102733.19
2023-03-01T01:21:11.696Z,102731.47
2023-03-01T01:23:40.069Z,102740.00
2023-03-01T01:26:19.269Z,102733.09
2023-03-01T01:28:46.591Z,102722.13
2023-03-01T01:31:13.377Z,102724.59
2023-03-01T01:33:39.848Z,102720.53
2023-03-01T01:36:07.451Z,102723.78
2023-03-01T01:38:34.940Z,102728.59
2023-03-01T01:41:01.362Z,102715.16
2023-03-01T01:43:55.253Z,102720.41
2023-03-01T01:46:34.267Z,102710.38
2023-03-01T01:49:04.584Z,102691.25
2023-03-01T01:51:45.091Z,102697.06
2023-03-01T01:54:19.422Z,102697.06
2023-03-01T01:56:52.803Z,102697.78
2023-03-01T01:59:19.367Z,102693.34
2023-03-01T02:01:45.819Z,102690.53
2023-03-01T02:04:12.548Z,102698.50
2023-03-01T02:06:46.996Z,102698.88
2023-03-01T02:09:16.593Z,102692.44
2023-03-01T02:11:45.050Z,102686.38
2023-03-01T02:14:11.764Z,102686.38
2023-03-01T02:16:38.332Z,102679.84
2023-03-01T02:19:06.137Z,102680.75
2023-03-01T02:21:42.857Z,102684.75
2023-03-01T02:24:46.638Z,102680.66
2023-03-01T02:27:13.488Z,102682.22
2023-03-01T02:29:39.983Z,102666.91
2023-03-01T02:32:07.573Z,102668.19
2023-03-01T02:34:34.100Z,102669.72
2023-03-01T02:37:08.017Z,102660.84
2023-03-01T02:39:44.069Z,102670.88
2023-03-01T02:42:14.065Z,102660.50
2023-03-01T02:44:40.508Z,102670.06
2023-03-01T02:47:07.563Z,102674.03
2023-03-01T02:49:36.272Z,102669.63
2023-03-01T02:52:21.950Z,102670.78
2023-03-01T02:55:14.786Z,102665.09
2023-03-01T02:57:44.580Z,102658.22
2023-03-01T03:00:22.197Z,102657.50
2023-03-01T03:02:51.438Z,102645.81
2023-03-01T03:05:22.464Z,102657.03
2023-03-01T03:07:52.505Z,102654.50
2023-03-01T03:10:22.136Z,102647.19
2023-03-01T03:12:54.656Z,102646.53
2023-03-01T03:15:22.014Z,102653.31
2023-03-01T03:17:49.621Z,102639.19
2023-03-01T03:20:19.959Z,102648.91
2023-03-01T03:22:52.124Z,102640.00
2023-03-01T03:25:20.072Z,102642.00
2023-03-01T03:27:49.455Z,102649.63
2023-03-01T03:30:19.122Z,102640.75
2023-03-01T03:32:53.623Z,102640.75
2023-03-01T03:35:22.616Z,102629.78
2023-03-01T03:38:04.747Z,102631.88
2023-03-01T03:40:40.578Z,102633.06
2023-03-01T03:43:15.909Z,102630.63
2023-03-01T03:45:44.266Z,102622.84
2023-03-01T03:48:11.023Z,102626.88
2023-03-01T03:50:39.080Z,102622.00
2023-03-01T03:53:07.995Z,102631.34
2023-03-01T03:55:35.275Z,102626.09
2023-03-01T03:58:07.509Z,102616.88
2023-03-01T04:00:40.162Z,102624.44
2023-03-01T04:03:07.187Z,102623.63
2023-03-01T04:05:34.299Z,102612.78
2023-03-01T04:08:03.717Z,102618.75
2023-03-01T04:10:33.494Z,102624.34
2023-03-01T04:12:59.944Z,102614.66
2023-03-01T04:15:27.947Z,102611.06
2023-03-01T04:17:56.064Z,102626.34
2023-03-01T04:20:25.609Z,102620.28
2023-03-01T04:23:21.275Z,102622.63
2023-03-01T04:25:56.287Z,102628.25
2023-03-01T04:28:31.228Z,102623.78
2023-03-01T04:30:59.190Z,102625.00
2023-03-01T04:33:26.423Z,102616.94
2023-03-01T04:35:53.349Z,102607.16
2023-03-01T04:38:22.154Z,102620.09
2023-03-01T04:40:48.867Z,102615.66
2023-03-01T04:43:15.673Z,102608.31
2023-03-01T04:45:42.444Z,102623.25
2023-03-01T04:48:08.912Z,102621.53
2023-03-01T04:50:36.162Z,102625.97
2023-03-01T04:53:02.890Z,102613.47
2023-03-01T04:55:30.038Z,102614.75
2023-03-01T04:57:56.591Z,102615.13
2023-03-01T05:00:23.945Z,102619.53
2023-03-01T05:02:55.445Z,102609.41
2023-03-01T05:05:42.318Z,102607.78
2023-03-01T05:08:09.388Z,102610.22
2023-03-01T05:10:37.245Z,102613.38
2023-03-01T05:13:04.406Z,102621.81
2023-03-01T05:15:32.442Z,102615.75
2023-03-01T05:18:00.295Z,102614.09
2023-03-01T05:20:31.155Z,102614.09
2023-03-01T05:23:00.647Z,102618.06
2023-03-01T05:25:27.774Z,102612.03
2023-03-01T05:27:54.245Z,102601.16
2023-03-01T05:30:20.762Z,102616.47
2023-03-01T05:32:49.834Z,102610.03
2023-03-01T05:35:18.347Z,102614.81
2023-03-01T05:37:47.044Z,102609.94
2023-03-01T05:40:16.695Z,102613.19
2023-03-01T05:42:51.442Z,102605.13
2023-03-01T05:45:18.770Z,102605.13
2023-03-01T05:47:47.427Z,102605.03
2023-03-01T05:50:20.019Z,102604.69
2023-03-01T05:52:49.312Z,102591.28
2023-03-01T05:55:18.052Z,102602.59
2023-03-01T05:57:44.489Z,102598.28
2023-03-01T06:00:11.598Z,102607.03
2023-03-01T06:02:41.717Z,102605.41
2023-03-01T06:05:10.959Z,102605.88
2023-03-01T06:07:37.700Z,102592.22
2023-03-01T06:10:05.935Z,102603.44
2023-03-01T06:12:33.740Z,102609.84
2023-03-01T06:15:00.569Z,102599.34
2023-03-01T06:17:30.416Z,102598.63
2023-03-01T06:19:57.206Z,102599.44
2023-03-01T06:22:23.664Z,102601.78
2023-03-01T06:24:50.720Z,102605.88
2023-03-01T06:27:17.686Z,102601.06
2023-03-01T06:29:44.085Z,102607.50
2023-03-01T06:32:10.748Z,102602.31
2023-03-01T06:34:37.256Z,102589.16
2023-03-01T06:37:06.057Z,102585.97
2023-03-01T06:39:33.692Z,102587.59
2023-03-01T06:42:00.798Z,102588.44
2023-03-01T06:44:27.793Z,102582.81
2023-03-01T06:46:54.428Z,102590.03
2023-03-01T06:49:21.936Z,102597.72
2023-03-01T06:51:48.333Z,102592.13
2023-03-01T06:54:14.813Z,102596.56
2023-03-01T06:56:41.264Z,102597.00
2023-03-01T06:59:07.669Z,102605.88
2023-03-01T07:01:34.136Z,102603.53
2023-03-01T07:04:00.696Z,102604.00
2023-03-01T07:06:27.135Z,102597.22
2023-03-01T07:08:53.535Z,102601.28
2023-03-01T07:11:19.985Z,102590.41
2023-03-01T07:13:46.408Z,102577.94
2023-03-01T07:16:12.962Z,102585.72
2023-03-01T07:18:39.863Z,102590.16
2023-03-01T07:21:08.926Z,102602.28
2023-03-01T07:23:35.418Z,102581.13
2023-03-01T07:26:02.078Z,102594.31
2023-03-01T07:28:28.701Z,102585.53
2023-03-01T07:30:55.637Z,102577.19
2023-03-01T07:33:22.393Z,102574.88
2023-03-01T07:35:48.903Z,102585.00
2023-03-01T07:38:15.430Z,102576.47
2023-03-01T07:40:41.848Z,102581.47
2023-03-01T07:43:08.265Z,102588.34
2023-03-01T07:45:34.725Z,102587.69
2023-03-01T07:48:01.232Z,102584.16
2023-03-01T07:50:27.648Z,102582.19
2023-03-01T07:52:54.079Z,102576.31
2023-03-01T07:55:20.988Z,102573.94
2023-03-01T07:57:47.456Z,102569.97
2023-03-01T08:00:14.524Z,102577.28
2023-03-01T08:02:42.842Z,102581.78
2023-03-01T08:05:10.989Z,102573.38
2023-03-01T08:07:37.748Z,102579.88
2023-03-01T08:10:04.868Z,102584.03
2023-03-01T08:12:31.319Z,102583.31
2023-03-01T08:14:57.954Z,102566.47
2023-03-01T08:17:24.831Z,102565.75
2023-03-01T08:19:51.251Z,102571.78
2023-03-01T08:22:17.699Z,102571.06
2023-03-01T08:24:44.172Z,102579.19
2023-03-01T08:27:10.929Z,102580.09
2023-03-01T08:29:37.467Z,102563.63
2023-03-01T08:32:04.190Z,102579.44
2023-03-01T08:34:32.093Z,102578.59
2023-03-01T08:36:59.128Z,102590.75
2023-03-01T08:39:25.587Z,102589.66
2023-03-01T08:41:52.141Z,102592.97
2023-03-01T08:44:18.640Z,102578.91
2023-03-01T08:46:46.455Z,102581.91
2023-03-01T08:49:15.893Z,102588.41
2023-03-01T08:51:43.298Z,102578.41
2023-03-01T08:54:15.990Z,102579.28
2023-03-01T08:56:42.952Z,102577.75
2023-03-01T08:59:11.067Z,102578.66
2023-03-01T09:01:38.092Z,102576.72
2023-03-01T09:04:05.294Z,102575.59
2023-03-01T09:06:34.577Z,102567.22
2023-03-01T09:09:01.809Z,102568.94
2023-03-01T09:11:28.924Z,102561.75
2023-03-01T09:13:55.472Z,102569.09
2023-03-01T09:16:23.549Z,102549.78
2023-03-01T09:18:52.214Z,102564.31
2023-03-01T09:21:37.185Z,102571.66
2023-03-01T09:24:06.687Z,102570.91
2023-03-01T09:26:33.697Z,102570.91
2023-03-01T09:29:00.418Z,102561.34
2023-03-01T09:31:26.894Z,102570.28
2023-03-01T09:33:54.905Z,102568.38
2023-03-01T09:36:26.203Z,102568.41
2023-03-01T09:38:53.835Z,102566.50
2023-03-01T09:41:38.071Z,102579.44
2023-03-01T09:44:11.321Z,102567.72
2023-03-01T09:46:44.689Z,102568.63
2023-03-01T09:49:19.256Z,102571.13
2023-03-01T09:52:17.353Z,102563.09
2023-03-01T09:54:43.794Z,102566.81
2023-03-01T09:57:10.117Z,102577.38
2023-03-01T10:00:07.010Z,102566.53
2023-03-01T10:02:48.272Z,102573.47
2023-03-01T10:05:56.742Z,102574.38
2023-03-01T10:08:58.503Z,102583.28
2023-03-01T10:11:28.602Z,102574.50
2023-03-01T10:14:02.412Z,102568.13
2023-03-01T10:16:35.292Z,102575.44
2023-03-01T10:19:04.835Z,102568.69
2023-03-01T10:21:32.885Z,102566.75
2023-03-01T10:24:15.282Z,102557.97
2023-03-01T10:26:50.042Z,102559.28
2023-03-01T10:29:16.771Z,102556.50
2023-03-01T10:31:49.830Z,102548.91
2023-03-01T10:34:18.357Z,102547.75
2023-03-01T10:36:51.690Z,102552.25
2023-03-01T10:39:21.917Z,102545.88
2023-03-01T10:41:59.014Z,102550.34
2023-03-01T10:44:49.697Z,102537.44
2023-03-01T10:47:22.870Z,102551.28
2023-03-01T10:50:18.406Z,102558.56
2023-03-01T10:52:58.821Z,102546.16
2023-03-01T10:55:34.844Z,102543.00
2023-03-01T10:58:15.960Z,102549.47
2023-03-01T11:00:52.236Z,102537.44
2023-03-01T11:03:23.159Z,102543.56
2023-03-01T11:06:12.618Z,102530.69
2023-03-01T11:08:47.677Z,102546.88
2023-03-01T11:11:33.864Z,102547.72
2023-03-01T11:14:27.864Z,102538.50
2023-03-01T11:17:03.004Z,102543.78
2023-03-01T11:19:29.974Z,102537.38
2023-03-01T11:22:14.459Z,102525.34
2023-03-01T11:25:08.796Z,102526.59
2023-03-01T11:27:41.803Z,102524.69
2023-03-01T11:30:21.880Z,102524.72
2023-03-01T11:33:05.796Z,102523.94
2023-03-01T11:35:34.300Z,102529.22
2023-03-01T11:38:25.738Z,102523.22
2023-03-01T11:40:59.935Z,102518.03
2023-03-01T11:44:25.352Z,102521.66
2023-03-01T11:47:31.490Z,102519.66
2023-03-01T11:50:20.486Z,102517.69
2023-03-01T11:53:10.695Z,102512.91
2023-03-01T11:55:44.586Z,102508.09
2023-03-01T11:58:48.505Z,102495.22
2023-03-01T12:01:52.191Z,102491.22
2023-03-01T12:04:38.740Z,102497.69
2023-03-01T12:07:37.500Z,102488.44
2023-03-01T12:10:24.679Z,102490.47
2023-03-01T12:13:16.247Z,102490.09
2023-03-01T12:15:58.933Z,102484.84
2023-03-01T12:18:45.432Z,102480.06
2023-03-01T12:21:51.057Z,102478.06
2023-03-01T12:24:31.503Z,102464.78
2023-03-01T12:27:13.200Z,102465.22
2023-03-01T12:30:18.053Z,102459.19
2023-03-01T12:33:03.071Z,102465.63
2023-03-01T12:35:50.681Z,102452.31
2023-03-01T12:38:42.204Z,102452.31
2023-03-01T12:41:32.083Z,102449.94
2023-03-01T12:44:41.279Z,102436.66
2023-03-01T12:47:24.129Z,102436.66
2023-03-01T12:49:57.545Z,102435.88
2023-03-01T12:52:47.557Z,102427.00
2023-03-01T12:55:34.685Z,102427.00
2023-03-01T12:58:43.663Z,102419.75
2023-03-01T13:01:27.216Z,102424.63
2023-03-01T13:04:03.083Z,102421.78
2023-03-01T13:06:45.569Z,102421.41
2023-03-01T13:09:44.687Z,102417.78
2023-03-01T13:12:49.744Z,102406.88
2023-03-01T13:15:36.726Z,102401.22
2023-03-01T13:18:26.369Z,102405.69
2023-03-01T13:20:55.955Z,102403.28
2023-03-01T13:23:22.508Z,102403.69
2023-03-01T13:26:01.048Z,102400.84
2023-03-01T13:28:45.939Z,102406.94
2023-03-01T13:31:21.612Z,102407.72
2023-03-01T13:33:57.642Z,102406.13
2023-03-01T13:36:48.078Z,102398.84
2023-03-01T13:39:48.002Z,102386.72
2023-03-01T13:42:56.193Z,102397.25
2023-03-01T13:45:41.369Z,102393.59
2023-03-01T13:48:17.794Z,102385.94
2023-03-01T13:50:55.528Z,102394.03
2023-03-01T13:53:27.568Z,102386.34
2023-03-01T13:56:02.221Z,102388.38
2023-03-01T13:58:32.698Z,102383.50
2023-03-01T14:01:07.957Z,102386.75
2023-03-01T14:03:42.753Z,102388.38
2023-03-01T14:06:20.893Z,102386.72
2023-03-01T14:08:50.444Z,102382.28
2023-03-01T14:11:48.552Z,102377.03
2023-03-01T14:14:20.997Z,102381.88
2023-03-01T14:16:59.454Z,102375.81
2023-03-01T14:19:33.556Z,102367.31
2023-03-01T14:22:05.247Z,102362.47
2023-03-01T14:24:33.873Z,102372.16
2023-03-01T14:27:02.715Z,102362.47
2023-03-01T14:29:37.572Z,102354.38
2023-03-01T14:32:31.558Z,102355.59
2023-03-01T14:34:59.878Z,102350.34
2023-03-01T14:37:33.262Z,102343.84
2023-03-01T14:40:02.508Z,102335.38
2023-03-01T14:42:34.988Z,102336.56
2023-03-01T14:45:03.037Z,102333.31
2023-03-01T14:47:32.997Z,102332.50
2023-03-01T14:50:04.911Z,102318.34
2023-03-01T14:52:40.249Z,102325.22
2023-03-01T14:55:17.649Z,102325.63
2023-03-01T14:57:45.534Z,102326.44
2023-03-01T15:00:19.655Z,102322.38
2023-03-01T15:02:49.659Z,102309.03
2023-03-01T15:05:19.055Z,102321.97
2023-03-01T15:07:49.770Z,102314.69
2023-03-01T15:10:22.884Z,102317.13
2023-03-01T15:12:49.737Z,102319.53
2023-03-01T15:15:39.325Z,102315.09
2023-03-01T15:18:14.742Z,102309.81
2023-03-01T15:20:41.322Z,102300.13
2023-03-01T15:23:19.996Z,102300.09
2023-03-01T15:25:46.579Z,102292.81
2023-03-01T15:28:21.347Z,102296.06
2023-03-01T15:30:58.029Z,102300.09
2023-03-01T15:33:30.418Z,102299.69
2023-03-01T15:35:59.623Z,102287.97
2023-03-01T15:38:39.229Z,102299.25
2023-03-01T15:41:23.774Z,102293.63
2023-03-01T15:43:51.435Z,102300.06
2023-03-01T15:46:22.738Z,102283.47
2023-03-01T15:48:53.350Z,102290.75
2023-03-01T15:51:27.932Z,102282.25
2023-03-01T15:53:54.920Z,102285.50
2023-03-01T15:56:21.685Z,102293.59
2023-03-01T15:58:48.426Z,102289.50
2023-03-01T16:01:20.687Z,102294.78
2023-03-01T16:03:47.137Z,102291.94
2023-03-01T16:06:13.587Z,102289.50
2023-03-01T16:08:41.062Z,102289.50
2023-03-01T16:11:17.994Z,102290.72
2023-03-01T16:13:44.670Z,102289.50
2023-03-01T16:16:17.232Z,102288.28
2023-03-01T16:18:45.408Z,102287.06
2023-03-01T16:21:14.693Z,102282.19
2023-03-01T16:23:41.357Z,102274.94
2023-03-01T16:26:07.806Z,102281.41
2023-03-01T16:28:34.226Z,102281.41
2023-03-01T16:31:02.331Z,102278.97
2023-03-01T16:33:33.444Z,102278.56
2023-03-01T16:36:10.922Z,102280.59
2023-03-01T16:38:37.840Z,102283.41
2023-03-01T16:41:04.372Z,102285.06
2023-03-01T16:43:31.642Z,102291.13
2023-03-01T16:45:59.717Z,102299.19
2023-03-01T16:48:27.058Z,102289.50
2023-03-01T16:51:01.446Z,102281.00
2023-03-01T16:53:29.718Z,102279.81
2023-03-01T16:55:58.022Z,102278.97
2023-03-01T16:58:27.621Z,102283.84
2023-03-01T17:00:54.815Z,102283.44
2023-03-01T17:03:22.233Z,102281.00
2023-03-01T17:05:48.827Z,102283.44
2023-03-01T17:08:15.837Z,102278.22
2023-03-01T17:10:45.412Z,102283.84
2023-03-01T17:13:12.161Z,102287.09
2023-03-01T17:15:42.240Z,102281.03
2023-03-01T17:18:10.037Z,102290.34
2023-03-01T17:20:36.805Z,102286.72
2023-03-01T17:23:04.024Z,102288.72
2023-03-01T17:25:30.466Z,102287.97
2023-03-01T17:27:57.108Z,102284.72
2023-03-01T17:30:23.635Z,102283.94
2023-03-01T17:32:50.232Z,102289.97
2023-03-01T17:35:16.809Z,102283.13
2023-03-01T17:37:46.367Z,102295.69
2023-03-01T17:40:13.478Z,102295.69
2023-03-01T17:42:39.942Z,102308.22
2023-03-01T17:45:07.459Z,102306.63
2023-03-01T17:47:34.376Z,102313.09
2023-03-01T17:50:00.823Z,102311.47
2023-03-01T17:52:27.224Z,102313.91
2023-03-01T17:54:53.640Z,102320.38
2023-03-01T17:57:20.167Z,102319.97
2023-03-01T17:59:46.611Z,102316.72
2023-03-01T18:02:13.525Z,102320.41
2023-03-01T18:04:40.002Z,102307.88
2023-03-01T18:07:06.515Z,102316.34
2023-03-01T18:09:32.921Z,102334.97
2023-03-01T18:11:59.954Z,102332.16
2023-03-01T18:14:29.856Z,102332.94
2023-03-01T18:16:56.378Z,102340.22
2023-03-01T18:19:23.132Z,102339.81
2023-03-01T18:21:49.554Z,102334.16
2023-03-01T18:24:16.020Z,102339.03
2023-03-01T18:26:42.469Z,102322.03
2023-03-01T18:29:10.501Z,102327.69
2023-03-01T18:31:37.073Z,102332.16
2023-03-01T18:34:03.549Z,102326.91
2023-03-01T18:36:34.101Z,102331.75
2023-03-01T18:39:05.747Z,102327.28
2023-03-01T18:41:33.699Z,102321.25
2023-03-01T18:44:03.673Z,102330.94
2023-03-01T18:46:30.668Z,102326.09
2023-03-01T18:48:57.240Z,102333.38
2023-03-01T18:51:27.101Z,102326.09
2023-03-01T18:53:53.731Z,102320.84
2023-03-01T18:56:20.267Z,102326.91
2023-03-01T18:58:47.028Z,102338.22
2023-03-01T19:01:15.888Z,102339.44
2023-03-01T19:03:42.941Z,102335.00
2023-03-01T19:06:09.491Z,102333.41
2023-03-01T19:08:36.164Z,102339.06
2023-03-01T19:11:05.257Z,102334.22
2023-03-01T19:13:33.956Z,102334.22
2023-03-01T19:16:28.791Z,102333.38
2023-03-01T19:19:01.182Z,102328.53
2023-03-01T19:21:29.725Z,102343.09
2023-03-01T19:23:57.747Z,102341.47
2023-03-01T19:26:26.424Z,102339.84
2023-03-01T19:28:55.443Z,102342.28
2023-03-01T19:31:28.439Z,102332.97
2023-03-01T19:34:09.994Z,102345.94
2023-03-01T19:36:38.981Z,102347.13
2023-03-01T19:39:06.627Z,102351.19
2023-03-01T19:41:33.496Z,102346.34
2023-03-01T19:44:02.725Z,102357.66
2023-03-01T19:46:29.383Z,102352.00
2023-03-01T19:48:56.979Z,102351.16
2023-03-01T19:51:23.365Z,102350.38
2023-03-01T19:53:50.174Z,102343.91
2023-03-01T19:56:16.684Z,102345.13
2023-03-01T19:58:43.410Z,102339.88
2023-03-01T20:01:21.097Z,102353.59
2023-03-01T20:03:48.452Z,102368.16
2023-03-01T20:06:20.241Z,102366.94
2023-03-01T20:08:47.556Z,102366.94
2023-03-01T20:11:16.160Z,102351.59
2023-03-01T20:13:42.798Z,102353.59
2023-03-01T20:16:10.056Z,102354.81
2023-03-01T20:18:36.766Z,102356.81
2023-03-01T20:21:05.439Z,102350.78
2023-03-01T20:23:33.718Z,102355.22
2023-03-01T20:26:08.997Z,102350.38
2023-03-01T20:28:36.666Z,102357.22
2023-03-01T20:31:09.162Z,102349.94
2023-03-01T20:33:36.150Z,102358.47
2023-03-01T20:36:03.688Z,102366.50
2023-03-01T20:38:30.384Z,102373.81
2023-03-01T20:41:01.577Z,102375.41
2023-03-01T20:43:28.767Z,102372.56
2023-03-01T20:45:55.692Z,102375.00
2023-03-01T20:48:22.964Z,102359.25
2023-03-01T20:50:49.402Z,102366.91
2023-03-01T20:53:16.100Z,102377.03
2023-03-01T20:55:42.630Z,102365.72
2023-03-01T20:58:09.113Z,102372.19
2023-03-01T21:00:35.681Z,102379.03
2023-03-01T21:03:04.346Z,102370.94
2023-03-01T21:05:31.742Z,102379.44
2023-03-01T21:08:02.370Z,102383.50
2023-03-01T21:10:30.633Z,102387.50
2023-03-01T21:12:57.112Z,102381.84
2023-03-01T21:15:29.397Z,102368.91
2023-03-01T21:17:58.744Z,102381.84
2023-03-01T21:20:25.313Z,102370.56
2023-03-01T21:22:51.804Z,102380.22
2023-03-01T21:25:18.404Z,102387.13
2023-03-01T21:27:44.877Z,102381.03
2023-03-01T21:30:11.936Z,102379.84
2023-03-01T21:32:38.413Z,102381.03
2023-03-01T21:35:05.351Z,102375.38
2023-03-01T21:37:31.748Z,102372.16
2023-03-01T21:39:58.180Z,102370.56
2023-03-01T21:42:24.673Z,102376.22
2023-03-01T21:44:51.171Z,102368.94
2023-03-01T21:47:17.562Z,102356.00
2023-03-01T21:49:44.054Z,102362.03
2023-03-01T21:52:16.607Z,102351.53
2023-03-01T21:54:43.736Z,102356.00
2023-03-01T21:57:10.257Z,102364.06
2023-03-01T21:59:36.685Z,102353.97
2023-03-01T22:02:03.416Z,102353.16
2023-03-01T22:04:29.832Z,102343.06
2023-03-01T22:06:56.266Z,102346.28
2023-03-01T22:09:23.375Z,102352.75
2023-03-01T22:11:58.387Z,102355.16
2023-03-01T22:14:26.407Z,102350.72
2023-03-01T22:16:53.310Z,102357.19
2023-03-01T22:19:21.821Z,102349.91
2023-03-01T22:21:50.567Z,102358.38
2023-03-01T22:24:20.108Z,102362.84
2023-03-01T22:26:47.906Z,102353.53
2023-03-01T22:29:18.327Z,102351.09
2023-03-01T22:31:45.377Z,102356.75
2023-03-01T22:34:12.215Z,102361.59
2023-03-01T22:36:41.618Z,102357.16
2023-03-01T22:39:08.564Z,102357.59
2023-03-01T22:41:41.451Z,102365.22
2023-03-01T22:44:07.936Z,102347.06
2023-03-01T22:46:34.761Z,102348.28
2023-03-01T22:49:01.469Z,102349.47
2023-03-01T22:51:31.280Z,102357.16
2023-03-01T22:53:58.024Z,102362.00
2023-03-01T22:56:31.282Z,102347.88
2023-03-01T22:58:59.197Z,102345.41
2023-03-01T23:01:26.596Z,102343.00
2023-03-01T23:03:53.364Z,102343.81
2023-03-01T23:06:21.232Z,102349.47
2023-03-01T23:08:52.466Z,102361.56
2023-03-01T23:11:20.764Z,102368.00
2023-03-01T23:13:47.681Z,102364.78
2023-03-01T23:16:15.836Z,102366.00
2023-03-01T23:18:42.732Z,102356.31
2023-03-01T23:21:17.620Z,102352.69
2023-03-01T23:23:46.356Z,102348.22
2023-03-01T23:26:13.933Z,102355.91
2023-03-01T23:28:40.695Z,102351.84
2023-03-01T23:31:10.558Z,102356.72
2023-03-01T23:33:40.198Z,102346.19
2023-03-01T23:36:31.366Z,102361.94
2023-03-01T23:39:05.133Z,102365.97
2023-03-01T23:41:33.780Z,102355.88
2023-03-01T23:44:01.964Z,102355.88
2023-03-01T23:46:31.551Z,102362.75
2023-03-01T23:48:59.029Z,102361.53
2023-03-01T23:51:26.156Z,102353.44
2023-03-01T23:53:57.465Z,102352.66
2023-03-01T23:56:32.938Z,102351.84
2023-03-01T23:59:01.800Z,102346.59
